sensor_id;sensor_type;location;lat;lon;timestamp;pressure;altitude;pressure_sealevel;temperature;humidity
57801;BME280;43627;42.728;23.256;2023-05-25T00:00:20;94949.16;;;13.38;100.00
57801;BME280;43627;42.728;23.256;2023-05-25T00:02:47;94960.72;;;13.48;100.00
57801;BME280;43627;42.728;23.256;2023-05-25T00:05:14;94926.28;;;13.41;100.00
57801;BME280;43627;42.728;23.256;2023-05-25T00:07:43;94952.09;;;13.55;100.00
57801;BME280;43627;42.728;23.256;2023-05-25T00:10:11;94948.88;;;13.57;100.00
57801;BME280;43627;42.728;23.256;2023-05-25T00:12:38;94953.91;;;13.64;100.00
57801;BME280;43627;42.728;23.256;2023-05-25T00:15:06;94952.25;;;13.72;100.00
57801;BME280;43627;42.728;23.256;2023-05-25T00:17:33;94944.00;;;13.66;100.00
57801;BME280;43627;42.728;23.256;2023-05-25T00:20:03;94960.44;;;13.66;100.00
57801;BME280;43627;42.728;23.256;2023-05-25T00:22:36;94952.69;;;13.65;100.00
57801;BME280;43627;42.728;23.256;2023-05-25T00:25:04;94947.63;;;13.58;100.00
57801;BME280;43627;42.728;23.256;2023-05-25T00:27:31;94948.13;;;13.56;100.00
57801;BME280;43627;42.728;23.256;2023-05-25T00:29:58;94914.19;;;13.28;100.00
57801;BME280;43627;42.728;23.256;2023-05-25T00:32:25;94948.38;;;13.58;100.00
57801;BME280;43627;42.728;23.256;2023-05-25T00:34:53;94943.53;;;13.48;100.00
57801;BME280;43627;42.728;23.256;2023-05-25T00:37:20;94952.16;;;13.40;100.00
57801;BME280;43627;42.728;23.256;2023-05-25T00:39:47;94955.13;;;13.37;100.00
57801;BME280;43627;42.728;23.256;2023-05-25T00:42:14;94955.13;;;13.37;100.00
57801;BME280;43627;42.728;23.256;2023-05-25T00:44:41;94949.97;;;13.44;100.00
57801;BME280;43627;42.728;23.256;2023-05-25T00:47:09;94954.28;;;13.51;100.00
57801;BME280;43627;42.728;23.256;2023-05-25T00:49:37;94965.25;;;13.51;100.00
57801;BME280;43627;42.728;23.256;2023-05-25T00:52:04;94963.53;;;13.54;100.00
57801;BME280;43627;42.728;23.256;2023-05-25T00:54:34;94960.16;;;13.64;100.00
57801;BME280;43627;42.728;23.256;2023-05-25T00:57:05;94938.81;;;13.48;100.00
57801;BME280;43627;42.728;23.256;2023-05-25T00:59:37;94958.44;;;13.67;100.00
57801;BME280;43627;42.728;23.256;2023-05-25T01:02:08;94953.97;;;13.69;100.00
57801;BME280;43627;42.728;23.256;2023-05-25T01:04:44;94941.41;;;13.57;100.00
57801;BME280;43627;42.728;23.256;2023-05-25T01:07:16;94967.63;;;13.64;100.00
57801;BME280;43627;42.728;23.256;2023-05-25T01:09:44;94918.47;;;13.34;100.00
57801;BME280;43627;42.728;23.256;2023-05-25T01:12:14;94945.09;;;13.54;100.00
57801;BME280;43627;42.728;23.256;2023-05-25T01:14:42;94948.13;;;13.56;100.00
57801;BME280;43627;42.728;23.256;2023-05-25T01:17:11;94952.78;;;13.50;100.00
57801;BME280;43627;42.728;23.256;2023-05-25T01:19:37;94971.44;;;13.72;100.00
57801;BME280;43627;42.728;23.256;2023-05-25T01:22:07;94955.50;;;13.70;100.00
57801;BME280;43627;42.728;23.256;2023-05-25T01:24:51;94964.69;;;13.67;100.00
57801;BME280;43627;42.728;23.256;2023-05-25T01:27:30;94913.91;;;13.26;100.00
57801;BME280;43627;42.728;23.256;2023-05-25T01:29:58;94952.50;;;13.48;100.00
57801;BME280;43627;42.728;23.256;2023-05-25T01:32:27;94923.47;;;13.15;100.00
57801;BME280;43627;42.728;23.256;2023-05-25T01:34:58;94940.19;;;13.38;100.00
57801;BME280;43627;42.728;23.256;2023-05-25T01:37:26;94887.47;;;13.02;100.00
57801;BME280;43627;42.728;23.256;2023-05-25T01:39:53;94881.03;;;13.05;100.00
57801;BME280;43627;42.728;23.256;2023-05-25T01:42:20;94894.94;;;13.02;100.00
57801;BME280;43627;42.728;23.256;2023-05-25T01:44:48;94953.81;;;13.32;100.00
57801;BME280;43627;42.728;23.256;2023-05-25T01:47:42;94946.97;;;13.42;100.00
57801;BME280;43627;42.728;23.256;2023-05-25T01:50:33;94931.09;;;13.26;100.00
57801;BME280;43627;42.728;23.256;2023-05-25T01:53:05;94934.38;;;13.30;100.00
57801;BME280;43627;42.728;23.256;2023-05-25T01:56:02;94951.13;;;13.18;100.00
57801;BME280;43627;42.728;23.256;2023-05-25T01:58:41;94900.28;;;12.70;100.00
57801;BME280;43627;42.728;23.256;2023-05-25T02:01:09;94862.34;;;12.43;100.00
57801;BME280;43627;42.728;23.256;2023-05-25T02:03:39;94957.06;;;12.96;100.00
57801;BME280;43627;42.728;23.256;2023-05-25T02:06:07;94905.84;;;12.61;100.00
57801;BME280;43627;42.728;23.256;2023-05-25T02:08:34;94900.56;;;12.22;100.00
57801;BME280;43627;42.728;23.256;2023-05-25T02:11:01;94918.59;;;12.14;100.00
57801;BME280;43627;42.728;23.256;2023-05-25T02:13:27;94961.53;;;12.28;100.00
57801;BME280;43627;42.728;23.256;2023-05-25T02:15:54;94957.97;;;12.22;100.00
57801;BME280;43627;42.728;23.256;2023-05-25T02:18:22;94969.09;;;12.19;100.00
57801;BME280;43627;42.728;23.256;2023-05-25T02:20:49;94949.03;;;12.07;100.00
57801;BME280;43627;42.728;23.256;2023-05-25T02:23:16;94965.50;;;11.98;100.00
57801;BME280;43627;42.728;23.256;2023-05-25T02:25:44;94940.22;;;11.73;100.00
57801;BME280;43627;42.728;23.256;2023-05-25T02:30:39;94960.03;;;11.83;100.00
57801;BME280;43627;42.728;23.256;2023-05-25T02:33:07;94978.72;;;11.85;100.00
57801;BME280;43627;42.728;23.256;2023-05-25T02:35:34;94981.53;;;11.90;100.00
57801;BME280;43627;42.728;23.256;2023-05-25T02:38:00;94980.69;;;11.99;100.00
57801;BME280;43627;42.728;23.256;2023-05-25T02:40:27;94972.38;;;12.08;100.00
57801;BME280;43627;42.728;23.256;2023-05-25T02:42:54;94981.72;;;12.16;100.00
57801;BME280;43627;42.728;23.256;2023-05-25T02:45:21;94976.75;;;12.15;100.00
57801;BME280;43627;42.728;23.256;2023-05-25T02:47:48;94982.19;;;12.29;100.00
57801;BME280;43627;42.728;23.256;2023-05-25T02:50:14;94996.22;;;12.37;100.00
57801;BME280;43627;42.728;23.256;2023-05-25T02:52:41;94993.66;;;12.48;100.00
57801;BME280;43627;42.728;23.256;2023-05-25T02:55:08;94996.50;;;12.54;100.00
57801;BME280;43627;42.728;23.256;2023-05-25T02:57:44;95003.09;;;12.47;100.00
57801;BME280;43627;42.728;23.256;2023-05-25T03:00:11;94997.66;;;12.33;100.00
57801;BME280;43627;42.728;23.256;2023-05-25T03:02:38;94999.81;;;12.43;100.00
57801;BME280;43627;42.728;23.256;2023-05-25T03:05:05;94998.50;;;12.53;100.00
57801;BME280;43627;42.728;23.256;2023-05-25T03:07:33;95002.91;;;12.66;100.00
57801;BME280;43627;42.728;23.256;2023-05-25T03:10:00;95003.25;;;12.73;100.00
57801;BME280;43627;42.728;23.256;2023-05-25T03:12:26;95002.41;;;12.82;100.00
57801;BME280;43627;42.728;23.256;2023-05-25T03:14:53;94999.81;;;12.93;100.00
57801;BME280;43627;42.728;23.256;2023-05-25T03:17:20;94989.41;;;12.97;100.00
57801;BME280;43627;42.728;23.256;2023-05-25T03:19:46;94999.38;;;13.15;100.00
57801;BME280;43627;42.728;23.256;2023-05-25T03:22:13;95002.00;;;13.24;100.00
57801;BME280;43627;42.728;23.256;2023-05-25T03:24:40;95002.34;;;13.32;100.00
57801;BME280;43627;42.728;23.256;2023-05-25T03:27:07;95010.69;;;13.43;100.00
57801;BME280;43627;42.728;23.256;2023-05-25T03:29:34;95008.03;;;13.49;100.00
57801;BME280;43627;42.728;23.256;2023-05-25T03:32:01;95004.34;;;13.52;100.00
57801;BME280;43627;42.728;23.256;2023-05-25T03:34:28;95009.53;;;13.70;100.00
57801;BME280;43627;42.728;23.256;2023-05-25T03:36:55;94992.88;;;13.73;100.00
57801;BME280;43627;42.728;23.256;2023-05-25T03:39:22;95013.09;;;14.02;100.00
57801;BME280;43627;42.728;23.256;2023-05-25T03:41:48;95018.94;;;14.10;100.00
57801;BME280;43627;42.728;23.256;2023-05-25T03:44:16;95014.41;;;14.33;100.00
57801;BME280;43627;42.728;23.256;2023-05-25T03:46:46;95012.78;;;14.72;100.00
57801;BME280;43627;42.728;23.256;2023-05-25T03:49:14;94970.88;;;14.77;100.00
57801;BME280;43627;42.728;23.256;2023-05-25T03:51:41;94948.34;;;14.62;100.00
57801;BME280;43627;42.728;23.256;2023-05-25T03:54:08;95027.06;;;15.19;100.00
57801;BME280;43627;42.728;23.256;2023-05-25T03:56:35;95017.63;;;15.74;100.00
57801;BME280;43627;42.728;23.256;2023-05-25T03:59:02;94996.72;;;16.10;100.00
57801;BME280;43627;42.728;23.256;2023-05-25T04:01:29;95019.81;;;16.80;100.00
57801;BME280;43627;42.728;23.256;2023-05-25T04:03:56;95032.34;;;16.98;100.00
57801;BME280;43627;42.728;23.256;2023-05-25T04:06:23;95037.09;;;16.86;100.00
57801;BME280;43627;42.728;23.256;2023-05-25T04:08:51;95041.84;;;16.85;100.00
57801;BME280;43627;42.728;23.256;2023-05-25T04:11:18;95043.59;;;16.94;100.00
57801;BME280;43627;42.728;23.256;2023-05-25T04:13:46;95045.59;;;16.99;100.00
57801;BME280;43627;42.728;23.256;2023-05-25T04:16:13;95058.38;;;17.02;100.00
57801;BME280;43627;42.728;23.256;2023-05-25T04:18:40;95059.13;;;16.75;100.00
57801;BME280;43627;42.728;23.256;2023-05-25T04:21:07;95062.34;;;16.68;100.00
57801;BME280;43627;42.728;23.256;2023-05-25T04:23:34;95060.84;;;16.50;100.00
57801;BME280;43627;42.728;23.256;2023-05-25T04:26:00;95039.50;;;16.17;100.00
57801;BME280;43627;42.728;23.256;2023-05-25T04:28:27;95076.81;;;16.46;100.00
57801;BME280;43627;42.728;23.256;2023-05-25T04:30:55;95076.91;;;16.91;100.00
57801;BME280;43627;42.728;23.256;2023-05-25T04:33:25;95072.13;;;17.25;100.00
57801;BME280;43627;42.728;23.256;2023-05-25T04:35:55;95006.53;;;16.95;100.00
57801;BME280;43627;42.728;23.256;2023-05-25T04:38:24;95069.63;;;17.16;100.00
57801;BME280;43627;42.728;23.256;2023-05-25T04:40:51;95074.88;;;16.74;100.00
57801;BME280;43627;42.728;23.256;2023-05-25T04:43:23;95082.16;;;16.89;100.00
57801;BME280;43627;42.728;23.256;2023-05-25T04:45:51;95077.88;;;17.21;100.00
57801;BME280;43627;42.728;23.256;2023-05-25T04:48:19;95052.53;;;17.56;100.00
57801;BME280;43627;42.728;23.256;2023-05-25T04:50:47;95074.16;;;18.10;97.31
57801;BME280;43627;42.728;23.256;2023-05-25T04:53:13;95077.16;;;18.95;90.77
57801;BME280;43627;42.728;23.256;2023-05-25T04:55:40;95058.34;;;19.48;83.04
57801;BME280;43627;42.728;23.256;2023-05-25T04:58:08;95057.25;;;20.24;76.93
57801;BME280;43627;42.728;23.256;2023-05-25T05:00:35;95064.06;;;20.79;71.67
57801;BME280;43627;42.728;23.256;2023-05-25T05:03:02;95060.84;;;21.07;67.83
57801;BME280;43627;42.728;23.256;2023-05-25T05:05:28;95069.16;;;21.66;65.75
57801;BME280;43627;42.728;23.256;2023-05-25T05:07:55;95041.97;;;21.64;62.63
57801;BME280;43627;42.728;23.256;2023-05-25T05:10:23;95072.47;;;22.04;61.79
57801;BME280;43627;42.728;23.256;2023-05-25T05:12:50;95065.47;;;22.50;57.09
57801;BME280;43627;42.728;23.256;2023-05-25T05:15:17;95056.34;;;22.29;58.52
57801;BME280;43627;42.728;23.256;2023-05-25T05:17:43;95056.44;;;22.37;57.51
57801;BME280;43627;42.728;23.256;2023-05-25T05:20:10;95066.31;;;22.11;58.73
57801;BME280;43627;42.728;23.256;2023-05-25T05:22:37;95061.16;;;22.15;59.75
57801;BME280;43627;42.728;23.256;2023-05-25T05:25:05;95068.81;;;22.36;57.08
57801;BME280;43627;42.728;23.256;2023-05-25T05:27:33;95078.22;;;22.33;57.16
57801;BME280;43627;42.728;23.256;2023-05-25T05:30:00;95072.19;;;22.55;56.25
57801;BME280;43627;42.728;23.256;2023-05-25T05:32:27;95076.84;;;22.39;56.28
57801;BME280;43627;42.728;23.256;2023-05-25T05:34:57;95087.09;;;22.78;54.62
57801;BME280;43627;42.728;23.256;2023-05-25T05:37:23;95091.22;;;22.51;55.81
57801;BME280;43627;42.728;23.256;2023-05-25T05:39:50;95096.13;;;22.58;55.05
57801;BME280;43627;42.728;23.256;2023-05-25T05:42:18;95093.41;;;22.05;59.22
57801;BME280;43627;42.728;23.256;2023-05-25T05:44:45;95088.38;;;21.77;59.31
57801;BME280;43627;42.728;23.256;2023-05-25T05:47:12;95082.09;;;21.63;61.13
57801;BME280;43627;42.728;23.256;2023-05-25T05:49:38;95081.34;;;21.63;64.52
57801;BME280;43627;42.728;23.256;2023-05-25T05:52:08;95086.16;;;21.62;63.90
57801;BME280;43627;42.728;23.256;2023-05-25T05:54:35;95091.16;;;21.77;64.63
57801;BME280;43627;42.728;23.256;2023-05-25T05:57:02;95094.50;;;22.15;60.58
57801;BME280;43627;42.728;23.256;2023-05-25T05:59:29;95081.31;;;22.42;58.70
57801;BME280;43627;42.728;23.256;2023-05-25T06:01:56;95077.34;;;22.51;57.79
57801;BME280;43627;42.728;23.256;2023-05-25T06:04:23;95089.94;;;22.65;58.24
57801;BME280;43627;42.728;23.256;2023-05-25T06:06:54;95086.63;;;22.53;58.44
57801;BME280;43627;42.728;23.256;2023-05-25T06:09:21;95087.31;;;22.46;58.70
57801;BME280;43627;42.728;23.256;2023-05-25T06:11:48;95087.34;;;22.67;58.38
57801;BME280;43627;42.728;23.256;2023-05-25T06:14:15;95084.38;;;22.52;57.96
57801;BME280;43627;42.728;23.256;2023-05-25T06:16:41;95089.00;;;22.49;58.58
57801;BME280;43627;42.728;23.256;2023-05-25T06:19:09;95084.06;;;22.56;57.71
57801;BME280;43627;42.728;23.256;2023-05-25T06:21:36;95069.56;;;22.84;56.96
57801;BME280;43627;42.728;23.256;2023-05-25T06:24:09;95095.41;;;22.58;58.13
57801;BME280;43627;42.728;23.256;2023-05-25T06:26:39;94984.09;;;22.08;57.57
57801;BME280;43627;42.728;23.256;2023-05-25T06:29:07;95039.31;;;22.46;57.00
57801;BME280;43627;42.728;23.256;2023-05-25T06:31:34;95090.28;;;22.83;57.45
57801;BME280;43627;42.728;23.256;2023-05-25T06:34:03;95104.84;;;22.89;57.27
57801;BME280;43627;42.728;23.256;2023-05-25T06:36:32;95026.19;;;22.46;57.33
57801;BME280;43627;42.728;23.256;2023-05-25T06:38:58;95032.78;;;22.57;56.90
57801;BME280;43627;42.728;23.256;2023-05-25T06:41:25;95089.19;;;22.99;57.50
57801;BME280;43627;42.728;23.256;2023-05-25T06:43:53;95106.88;;;23.30;57.27
57801;BME280;43627;42.728;23.256;2023-05-25T06:46:21;95051.03;;;22.52;59.47
57801;BME280;43627;42.728;23.256;2023-05-25T06:48:53;95076.88;;;22.13;65.02
57801;BME280;43627;42.728;23.256;2023-05-25T06:51:20;95100.06;;;22.63;64.82
57801;BME280;43627;42.728;23.256;2023-05-25T06:53:47;95110.69;;;23.19;60.86
57801;BME280;43627;42.728;23.256;2023-05-25T06:56:14;95097.94;;;23.45;60.58
57801;BME280;43627;42.728;23.256;2023-05-25T06:58:41;95101.88;;;23.99;61.33
57801;BME280;43627;42.728;23.256;2023-05-25T07:01:08;95079.94;;;23.46;59.94
57801;BME280;43627;42.728;23.256;2023-05-25T07:03:35;95096.44;;;23.02;63.20
57801;BME280;43627;42.728;23.256;2023-05-25T07:06:01;95097.13;;;22.95;68.82
57801;BME280;43627;42.728;23.256;2023-05-25T07:08:28;95098.09;;;23.60;65.65
57801;BME280;43627;42.728;23.256;2023-05-25T07:10:55;95093.72;;;23.72;58.97
57801;BME280;43627;42.728;23.256;2023-05-25T07:13:22;95090.25;;;23.58;64.40
57801;BME280;43627;42.728;23.256;2023-05-25T07:15:49;95080.28;;;23.63;58.98
57801;BME280;43627;42.728;23.256;2023-05-25T07:18:18;95076.69;;;22.45;74.31
57801;BME280;43627;42.728;23.256;2023-05-25T07:20:45;95087.31;;;21.67;82.00
57801;BME280;43627;42.728;23.256;2023-05-25T07:23:12;95098.91;;;21.07;90.35
57801;BME280;43627;42.728;23.256;2023-05-25T07:25:39;95094.22;;;20.83;91.85
57801;BME280;43627;42.728;23.256;2023-05-25T07:28:07;95084.38;;;20.69;99.10
57801;BME280;43627;42.728;23.256;2023-05-25T07:30:34;95095.66;;;20.71;91.06
57801;BME280;43627;42.728;23.256;2023-05-25T07:33:01;95097.31;;;21.11;90.23
57801;BME280;43627;42.728;23.256;2023-05-25T07:35:28;95109.59;;;21.16;73.89
57801;BME280;43627;42.728;23.256;2023-05-25T07:37:58;95107.91;;;21.13;74.08
57801;BME280;43627;42.728;23.256;2023-05-25T07:40:26;95109.06;;;20.86;82.04
57801;BME280;43627;42.728;23.256;2023-05-25T07:42:53;95102.91;;;21.25;76.80
57801;BME280;43627;42.728;23.256;2023-05-25T07:45:21;95098.94;;;20.88;69.95
57801;BME280;43627;42.728;23.256;2023-05-25T07:48:02;95042.63;;;19.86;82.04
57801;BME280;43627;42.728;23.256;2023-05-25T07:50:43;95100.56;;;20.03;83.64
57801;BME280;43627;42.728;23.256;2023-05-25T07:53:10;95102.09;;;19.98;85.85
57801;BME280;43627;42.728;23.256;2023-05-25T07:55:37;95105.00;;;19.87;83.53
57801;BME280;43627;42.728;23.256;2023-05-25T07:58:03;95091.41;;;19.64;91.17
57801;BME280;43627;42.728;23.256;2023-05-25T08:00:33;95087.00;;;19.20;90.15
57801;BME280;43627;42.728;23.256;2023-05-25T08:03:00;95104.53;;;19.28;93.11
57801;BME280;43627;42.728;23.256;2023-05-25T08:05:28;95128.53;;;19.45;94.16
57801;BME280;43627;42.728;23.256;2023-05-25T08:07:55;95124.78;;;19.12;91.49
57801;BME280;43627;42.728;23.256;2023-05-25T08:10:22;95137.81;;;18.81;91.91
57801;BME280;43627;42.728;23.256;2023-05-25T08:12:49;95129.66;;;17.90;99.42
57801;BME280;43627;42.728;23.256;2023-05-25T08:15:18;95156.28;;;17.48;100.00
57801;BME280;43627;42.728;23.256;2023-05-25T08:17:47;95164.31;;;17.07;100.00
57801;BME280;43627;42.728;23.256;2023-05-25T08:20:16;95173.03;;;16.89;100.00
57801;BME280;43627;42.728;23.256;2023-05-25T08:22:43;95168.19;;;16.67;100.00
57801;BME280;43627;42.728;23.256;2023-05-25T08:25:10;95152.63;;;16.41;100.00
57801;BME280;43627;42.728;23.256;2023-05-25T08:27:37;95165.13;;;16.42;100.00
57801;BME280;43627;42.728;23.256;2023-05-25T08:30:04;95164.09;;;16.34;100.00
57801;BME280;43627;42.728;23.256;2023-05-25T08:32:31;95156.84;;;16.31;100.00
57801;BME280;43627;42.728;23.256;2023-05-25T08:34:58;95099.72;;;15.55;100.00
57801;BME280;43627;42.728;23.256;2023-05-25T08:37:27;95133.78;;;15.63;100.00
57801;BME280;43627;42.728;23.256;2023-05-25T08:39:54;95146.84;;;15.42;100.00
57801;BME280;43627;42.728;23.256;2023-05-25T08:42:21;95133.78;;;15.32;100.00
57801;BME280;43627;42.728;23.256;2023-05-25T08:44:49;95129.56;;;15.05;100.00
57801;BME280;43627;42.728;23.256;2023-05-25T08:47:16;95167.91;;;15.20;100.00
57801;BME280;43627;42.728;23.256;2023-05-25T08:49:44;95155.72;;;15.26;100.00
57801;BME280;43627;42.728;23.256;2023-05-25T08:52:13;95113.09;;;14.73;100.00
57801;BME280;43627;42.728;23.256;2023-05-25T08:54:43;95162.03;;;15.06;100.00
57801;BME280;43627;42.728;23.256;2023-05-25T09:05:14;95190.88;;;15.22;100.00
57801;BME280;43627;42.728;23.256;2023-05-25T09:07:42;95186.38;;;15.19;100.00
57801;BME280;43627;42.728;23.256;2023-05-25T09:10:10;95193.22;;;15.03;100.00
57801;BME280;43627;42.728;23.256;2023-05-25T09:12:37;95187.13;;;14.94;100.00
57801;BME280;43627;42.728;23.256;2023-05-25T09:15:05;95192.94;;;15.01;100.00
57801;BME280;43627;42.728;23.256;2023-05-25T09:17:32;95170.47;;;14.97;100.00
57801;BME280;43627;42.728;23.256;2023-05-25T09:20:02;95188.31;;;15.13;100.00
57801;BME280;43627;42.728;23.256;2023-05-25T09:22:29;95199.78;;;15.11;100.00
57801;BME280;43627;42.728;23.256;2023-05-25T09:25:06;95175.38;;;15.19;100.00
57801;BME280;43627;42.728;23.256;2023-05-25T09:27:35;95159.47;;;15.29;100.00
57801;BME280;43627;42.728;23.256;2023-05-25T09:30:05;95172.63;;;15.51;100.00
57801;BME280;43627;42.728;23.256;2023-05-25T09:32:32;95193.13;;;15.87;100.00
57801;BME280;43627;42.728;23.256;2023-05-25T09:35:10;95174.22;;;16.06;100.00
57801;BME280;43627;42.728;23.256;2023-05-25T09:37:38;95183.63;;;16.36;100.00
57801;BME280;43627;42.728;23.256;2023-05-25T09:40:06;95183.66;;;16.47;100.00
57801;BME280;43627;42.728;23.256;2023-05-25T09:42:37;95178.47;;;16.61;100.00
57801;BME280;43627;42.728;23.256;2023-05-25T09:45:08;95165.16;;;16.53;100.00
57801;BME280;43627;42.728;23.256;2023-05-25T09:47:35;95176.19;;;16.53;100.00
57801;BME280;43627;42.728;23.256;2023-05-25T09:50:04;95175.22;;;16.62;100.00
57801;BME280;43627;42.728;23.256;2023-05-25T09:52:41;95172.28;;;16.88;100.00
57801;BME280;43627;42.728;23.256;2023-05-25T09:55:08;95177.09;;;17.16;100.00
57801;BME280;43627;42.728;23.256;2023-05-25T09:57:36;95165.53;;;17.00;100.00
57801;BME280;43627;42.728;23.256;2023-05-25T10:00:05;95169.31;;;17.08;100.00
57801;BME280;43627;42.728;23.256;2023-05-25T10:02:37;95163.28;;;17.04;100.00
57801;BME280;43627;42.728;23.256;2023-05-25T10:05:04;95174.34;;;17.27;100.00
57801;BME280;43627;42.728;23.256;2023-05-25T10:07:33;95145.50;;;17.33;100.00
57801;BME280;43627;42.728;23.256;2023-05-25T10:10:05;95177.81;;;17.78;100.00
57801;BME280;43627;42.728;23.256;2023-05-25T10:12:33;95129.94;;;17.75;100.00
57801;BME280;43627;42.728;23.256;2023-05-25T10:15:05;95123.63;;;17.97;100.00
57801;BME280;43627;42.728;23.256;2023-05-25T10:17:35;95104.72;;;18.18;100.00
57801;BME280;43627;42.728;23.256;2023-05-25T10:20:06;95148.69;;;18.63;100.00
57801;BME280;43627;42.728;23.256;2023-05-25T10:22:56;95095.75;;;18.53;100.00
57801;BME280;43627;42.728;23.256;2023-05-25T10:26:09;95149.25;;;18.97;100.00
57801;BME280;43627;42.728;23.256;2023-05-25T10:30:45;95130.63;;;19.33;100.00
57801;BME280;43627;42.728;23.256;2023-05-25T10:33:13;95117.38;;;18.96;100.00
57801;BME280;43627;42.728;23.256;2023-05-25T10:35:42;95094.19;;;18.63;100.00
57801;BME280;43627;42.728;23.256;2023-05-25T10:38:29;95133.44;;;18.97;100.00
57801;BME280;43627;42.728;23.256;2023-05-25T10:40:59;95099.31;;;18.48;100.00
57801;BME280;43627;42.728;23.256;2023-05-25T10:43:28;95063.91;;;18.46;100.00
57801;BME280;43627;42.728;23.256;2023-05-25T10:45:56;95110.69;;;18.80;100.00
57801;BME280;43627;42.728;23.256;2023-05-25T10:48:33;95110.09;;;18.93;100.00
57801;BME280;43627;42.728;23.256;2023-05-25T10:51:24;95115.78;;;19.06;100.00
57801;BME280;43627;42.728;23.256;2023-05-25T10:53:59;95089.13;;;18.32;100.00
57801;BME280;43627;42.728;23.256;2023-05-25T10:56:27;95078.50;;;17.94;100.00
57801;BME280;43627;42.728;23.256;2023-05-25T10:58:54;95075.50;;;17.87;100.00
57801;BME280;43627;42.728;23.256;2023-05-25T11:01:24;95090.78;;;17.93;100.00
57801;BME280;43627;42.728;23.256;2023-05-25T11:09:05;95067.28;;;17.76;100.00
57801;BME280;43627;42.728;23.256;2023-05-25T11:14:28;95079.94;;;18.07;100.00
57801;BME280;43627;42.728;23.256;2023-05-25T11:17:08;95085.03;;;18.44;100.00
57801;BME280;43627;42.728;23.256;2023-05-25T11:19:51;95083.06;;;18.39;100.00
57801;BME280;43627;42.728;23.256;2023-05-25T11:22:33;95088.28;;;18.48;100.00
57801;BME280;43627;42.728;23.256;2023-05-25T11:25:02;95066.13;;;18.07;100.00
57801;BME280;43627;42.728;23.256;2023-05-25T11:27:30;95077.19;;;18.07;100.00
57801;BME280;43627;42.728;23.256;2023-05-25T11:29:58;95094.25;;;18.52;100.00
57801;BME280;43627;42.728;23.256;2023-05-25T11:32:26;95051.44;;;18.34;100.00
57801;BME280;43627;42.728;23.256;2023-05-25T11:34:55;95010.41;;;18.55;100.00
57801;BME280;43627;42.728;23.256;2023-05-25T11:37:25;95067.06;;;19.03;100.00
57801;BME280;43627;42.728;23.256;2023-05-25T11:39:54;95052.34;;;19.19;100.00
57801;BME280;43627;42.728;23.256;2023-05-25T11:42:24;95079.59;;;19.64;100.00
57801;BME280;43627;42.728;23.256;2023-05-25T11:44:52;95039.53;;;19.46;100.00
57801;BME280;43627;42.728;23.256;2023-05-25T11:47:21;95030.25;;;19.68;100.00
57801;BME280;43627;42.728;23.256;2023-05-25T11:49:49;95041.66;;;19.59;100.00
57801;BME280;43627;42.728;23.256;2023-05-25T11:52:17;95076.94;;;19.53;99.82
57801;BME280;43627;42.728;23.256;2023-05-25T11:54:48;95048.22;;;19.31;100.00
57801;BME280;43627;42.728;23.256;2023-05-25T11:57:19;95073.25;;;19.69;100.00
57801;BME280;43627;42.728;23.256;2023-05-25T11:59:50;95081.41;;;20.05;100.00
57801;BME280;43627;42.728;23.256;2023-05-25T12:02:22;95080.84;;;20.49;100.00
57801;BME280;43627;42.728;23.256;2023-05-25T12:04:59;95080.34;;;20.83;100.00
57801;BME280;43627;42.728;23.256;2023-05-25T12:07:30;95046.94;;;20.43;100.00
57801;BME280;43627;42.728;23.256;2023-05-25T12:10:07;95077.75;;;21.23;100.00
57801;BME280;43627;42.728;23.256;2023-05-25T12:12:48;95081.00;;;20.76;76.13
57801;BME280;43627;42.728;23.256;2023-05-25T12:15:23;95072.00;;;20.32;84.73
57801;BME280;43627;42.728;23.256;2023-05-25T12:17:51;95075.13;;;20.23;88.48
57801;BME280;43627;42.728;23.256;2023-05-25T12:20:20;95069.28;;;20.08;73.56
57801;BME280;43627;42.728;23.256;2023-05-25T12:22:47;95075.56;;;20.27;67.61
57801;BME280;43627;42.728;23.256;2023-05-25T12:25:18;95052.59;;;20.13;82.50
57801;BME280;43627;42.728;23.256;2023-05-25T12:27:46;95049.56;;;20.54;77.80
57801;BME280;43627;42.728;23.256;2023-05-25T12:30:13;95044.59;;;20.98;75.33
57801;BME280;43627;42.728;23.256;2023-05-25T12:32:59;95056.75;;;21.41;59.01
57801;BME280;43627;42.728;23.256;2023-05-25T12:35:42;95044.53;;;21.04;63.63
57801;BME280;43627;42.728;23.256;2023-05-25T12:38:14;95048.06;;;21.18;71.27
57801;BME280;43627;42.728;23.256;2023-05-25T12:40:41;95040.34;;;21.43;62.78
57801;BME280;43627;42.728;23.256;2023-05-25T12:43:09;95041.75;;;21.76;59.23
57801;BME280;43627;42.728;23.256;2023-05-25T12:45:43;95011.00;;;22.00;62.13
57801;BME280;43627;42.728;23.256;2023-05-25T12:48:10;95026.91;;;21.86;62.76
57801;BME280;43627;42.728;23.256;2023-05-25T12:50:38;95002.47;;;21.58;62.73
57801;BME280;43627;42.728;23.256;2023-05-25T12:53:04;95023.78;;;22.03;65.29
57801;BME280;43627;42.728;23.256;2023-05-25T12:55:32;94985.91;;;22.40;63.28
57801;BME280;43627;42.728;23.256;2023-05-25T12:58:03;95011.19;;;22.49;62.26
57801;BME280;43627;42.728;23.256;2023-05-25T13:00:35;95014.69;;;22.29;59.20
57801;BME280;43627;42.728;23.256;2023-05-25T13:03:04;95008.25;;;22.68;58.65
57801;BME280;43627;42.728;23.256;2023-05-25T13:05:34;94999.44;;;22.98;56.71
57801;BME280;43627;42.728;23.256;2023-05-25T13:08:03;94988.81;;;23.38;59.43
57801;BME280;43627;42.728;23.256;2023-05-25T13:10:31;94996.50;;;23.25;55.35
57801;BME280;43627;42.728;23.256;2023-05-25T13:12:59;94985.63;;;23.06;55.99